Mpanda Airport

Airport
ICAO code: 
HTMP
IATA Code: 
NPY
Summary
ICAO Region: 
AFI
Territory: 
Location: 
Mpanda, Katavi Region
Serving: 
Katavi Region
Elevation: 
3565 ft
Coordinates: 
Aerial View: 
6° 21' 20.016" S, 31° 4' 50.016" E
Metar
Observation
HTMP 160900Z 18006KT 9999 RA OVC080 20/19 Q1021
Station
Mpanda Airport
Date/Time
2022-01-16 09:00:00
Wind direction
180°
Wind speed
06 kts
Lowest cloud amount
overcast
Temperature
20°C
Dew point
19°C
Humidity
93%
QNH
1021 hPa
Weather condition
rain

Mpanda Airport is an airport in western Tanzania serving the town of Mpanda and the surrounding Katavi Region.

Climatology

Tropical Savanna climate (Köppen climate classification Aw)

Airport map: 
Aerial View: 

SKYbrary Partners:

Safety knowledge contributed by: